Battle Creek, MI (49015)

7:18 PM EDT on May 29, 2015 (GMT -0400)
Wattles Park | | Change Station
CLOSE
Current Station
Personal Weather Station
Location: Battle Creek, MI
Elevation: 903 ft
Nearby Weather Stations

Elev 903 ft 42.32 °N, 85.11 °W | Updated 20 seconds ago

Rain
Rain
73.3 °F
Feels Like 72 °F
N
0.0
Wind Variable Wind from NE
Gusts 1.0 mph

Today
High -- | Low -- °F
--% Chance of Precip.
Yesterday
High -- | Low -- °F
Precip. -- in
6:08 AM 9:08 PM
Waxing Gibbous, 86% visible
Pressure 29.95 in
Visibility 10.0 miles
Clouds Few 5500 ft
Heat Index 72 °F
Dew Point 70 °F
Humidity 88%
Rainfall 0.05 in
Snow Depth Not available.
UV 2 out of 12
Pollen 9.10 out of 12
Air Quality Not available.
Flu Activity Sporadic
METAR KBTL 292253Z 03003KT 10SM FEW055 23/20 A2997 RMK AO2 RAE26 SLP142 P0020 T02330200

More Conditions Fewer Conditions

Pressure 29.95 in
Visibility 10.0 miles
Clouds Few 5500 ft
Heat Index 72 °F
Dew Point 70 °F
Humidity 88%
Rainfall 0.05 in
Snow Depth Not available.
UV 2 out of 12
Pollen 9.10 out of 12
Air Quality Not available.
Flu Activity Sporadic
METAR KBTL 292253Z 03003KT 10SM FEW055 23/20 A2997 RMK AO2 RAE26 SLP142 P0020 T02330200

More Conditions Fewer Conditions

10-Day Weather Forecast

Almanac

Astronomy

May. 29, 2015 Rise Set
Actual Time
Civil Twilight
Nautical Twilight
Astronomical Twilight
Moon
Length of Visible Light
Length of Day
Tomorrow will be .
, % of the Moon is Illuminated

Today's Extremes

State Highs State Lows

Community

WunderPhotos

Upload Photos

1,825,397 photos uploaded!

WunderBlogs® & News

Nearby

Air Quality

  Air Quality AQ Index Pollutant
Not available.

Snow Depth

Station Depth Elevation

Earthquake Activity

City Distance Mag. Time & Date
Minimum magnitude displayed is 2.5.

Coastal Water Temperatures

Place Temperature

Stations

Nearby Weather Stations

Station Location Temp. Windchill Dew Point Humidity Wind Precip. Elev Updated Type